Sunwu, China
Current Conditions -  °F | °C
As of 12:00 AM on Wednesday 28 Jan 2015 (Local Time) from UHBB Reporting Station
Clear Clear  
Wind Chill: -16°   Ceiling: Unl
Heat Index: -6°   Visibility: 6mi
Dew Point: -15°   Wind: 4mph
Humidity: 65%   Direction: 270°W
Pressure: 30.3"   Gusts: NA
Location:  49.43°N, 127.35°E
Report Text: UHBB 271600Z 27002MPS CAVOK M21/M26 Q1026 NOSIG RMK QFE752/100336410260
Loading
Personal Weather Stations






























Interactive Weather Map New forecast layout! Learn more

10-Day Weather Forecast

Advertisements
Track Severe Weather on mobile